createdAt,value
2023-03-29T00:00:49.992Z,77.42
2023-03-29T00:03:54.151Z,77.00
2023-03-29T00:06:57.008Z,77.86
2023-03-29T00:10:00.368Z,77.88
2023-03-29T00:13:03.130Z,77.86
2023-03-29T00:16:05.686Z,77.44
2023-03-29T00:19:07.874Z,77.59
2023-03-29T00:22:10.155Z,78.39
2023-03-29T00:25:13.351Z,78.70
2023-03-29T00:28:15.650Z,78.71
2023-03-29T00:31:18.465Z,78.68
2023-03-29T00:34:25.012Z,78.22
2023-03-29T00:37:29.913Z,78.28
2023-03-29T00:40:33.456Z,78.33
2023-03-29T00:43:59.649Z,78.62
2023-03-29T00:47:01.926Z,79.15
2023-03-29T00:50:26.369Z,79.03
2023-03-29T00:53:37.091Z,79.38
2023-03-29T00:56:40.557Z,79.53
2023-03-29T00:59:45.200Z,79.38
2023-03-29T01:02:54.451Z,78.92
2023-03-29T01:06:01.800Z,79.26
2023-03-29T01:09:08.813Z,79.73
2023-03-29T01:12:19.422Z,79.09
2023-03-29T01:15:27.863Z,79.80
2023-03-29T01:18:31.446Z,79.53
2023-03-29T01:21:44.893Z,78.98
2023-03-29T01:25:12.953Z,79.32
2023-03-29T01:28:21.446Z,79.28
2023-03-29T01:31:34.474Z,78.92
2023-03-29T01:34:45.495Z,78.88
2023-03-29T01:37:56.790Z,78.89
2023-03-29T01:40:59.200Z,79.60
2023-03-29T01:44:17.338Z,78.78
2023-03-29T01:47:29.682Z,79.27
2023-03-29T01:50:56.418Z,79.45
2023-03-29T01:54:05.050Z,80.51
2023-03-29T01:57:10.752Z,80.39
2023-03-29T02:00:21.343Z,80.19
2023-03-29T02:03:30.968Z,80.51
2023-03-29T02:06:34.829Z,80.45
2023-03-29T02:09:38.666Z,80.77
2023-03-29T02:12:41.250Z,81.20
2023-03-29T02:15:45.245Z,81.71
2023-03-29T02:18:49.181Z,81.75
2023-03-29T02:22:10.362Z,82.47
2023-03-29T02:25:13.058Z,82.82
2023-03-29T02:28:15.900Z,83.87
2023-03-29T02:31:28.010Z,84.67
2023-03-29T02:34:37.648Z,85.05
2023-03-29T02:37:46.375Z,84.26
2023-03-29T02:40:48.840Z,83.15
2023-03-29T02:43:52.574Z,81.37
2023-03-29T02:46:59.637Z,80.71
2023-03-29T02:50:02.389Z,81.52
2023-03-29T02:53:10.290Z,82.19
2023-03-29T02:56:13.866Z,82.42
2023-03-29T02:59:19.533Z,82.63
2023-03-29T03:02:21.802Z,82.74
2023-03-29T03:05:24.307Z,83.40
2023-03-29T03:08:26.604Z,82.08
2023-03-29T03:11:28.978Z,82.34
2023-03-29T03:14:31.266Z,82.36
2023-03-29T03:17:40.045Z,81.38
2023-03-29T03:20:42.736Z,79.43
2023-03-29T03:23:45.847Z,78.83
2023-03-29T03:26:48.239Z,80.07
2023-03-29T03:29:50.672Z,79.02
2023-03-29T03:32:54.940Z,79.71
2023-03-29T03:36:17.279Z,79.18
2023-03-29T03:39:21.012Z,79.71
2023-03-29T03:42:23.977Z,78.91
2023-03-29T03:45:26.441Z,78.40
2023-03-29T03:48:38.230Z,78.26
2023-03-29T03:51:45.640Z,78.68
2023-03-29T03:54:50.313Z,78.71
2023-03-29T03:58:09.252Z,78.72
2023-03-29T04:01:11.925Z,79.40
2023-03-29T04:04:23.414Z,79.41
2023-03-29T04:07:46.642Z,79.66
2023-03-29T04:11:10.599Z,79.80
2023-03-29T04:14:16.811Z,80.20
2023-03-29T04:17:45.499Z,79.92
2023-03-29T04:21:21.408Z,80.60
2023-03-29T04:24:24.650Z,82.85
2023-03-29T04:27:47.174Z,84.66
2023-03-29T04:31:14.990Z,84.17
2023-03-29T04:34:26.523Z,84.49
2023-03-29T04:37:33.703Z,85.58
2023-03-29T04:40:37.440Z,84.39
2023-03-29T04:44:04.215Z,83.76
2023-03-29T04:47:07.352Z,83.86
2023-03-29T04:50:13.886Z,83.30
2023-03-29T04:53:22.431Z,82.85
2023-03-29T04:56:26.444Z,84.29
2023-03-29T05:00:00.255Z,83.65
2023-03-29T05:03:35.656Z,83.95
2023-03-29T05:06:52.122Z,82.67
2023-03-29T05:09:57.885Z,82.06
2023-03-29T05:13:00.351Z,82.30
2023-03-29T05:16:04.873Z,81.77
2023-03-29T05:19:07.246Z,82.87
2023-03-29T05:22:12.703Z,83.02
2023-03-29T05:25:19.935Z,82.97
2023-03-29T05:28:22.520Z,82.68
2023-03-29T05:31:25.262Z,82.25
2023-03-29T05:34:31.635Z,80.94
2023-03-29T05:37:37.534Z,79.18
2023-03-29T05:40:41.651Z,80.26
2023-03-29T05:44:05.568Z,80.03
2023-03-29T05:47:08.403Z,76.42
2023-03-29T05:50:11.548Z,76.66
2023-03-29T05:53:15.458Z,75.32
2023-03-29T05:56:19.134Z,74.95
2023-03-29T05:59:31.225Z,75.12
2023-03-29T06:02:35.387Z,74.56
2023-03-29T06:05:40.579Z,73.97
2023-03-29T06:08:44.089Z,73.64
2023-03-29T06:11:57.620Z,73.19
2023-03-29T06:15:10.442Z,71.77
2023-03-29T06:18:28.590Z,68.38
2023-03-29T06:21:37.277Z,67.74
2023-03-29T06:24:45.437Z,68.75
2023-03-29T06:27:59.766Z,65.41
2023-03-29T06:31:06.204Z,65.49
2023-03-29T06:34:14.385Z,65.56
2023-03-29T06:37:51.756Z,68.64
2023-03-29T06:41:06.237Z,67.59
2023-03-29T06:44:33.886Z,68.44
2023-03-29T06:47:45.478Z,66.60
2023-03-29T06:50:50.272Z,66.90
2023-03-29T06:53:53.732Z,64.58
2023-03-29T06:57:01.060Z,64.94
2023-03-29T07:00:24.755Z,64.99
2023-03-29T07:03:59.861Z,64.43
2023-03-29T07:07:20.758Z,61.38
2023-03-29T07:10:35.311Z,58.27
2023-03-29T07:14:02.104Z,56.09
2023-03-29T07:17:08.379Z,53.12
2023-03-29T07:20:16.154Z,50.86
2023-03-29T07:23:24.848Z,47.18
2023-03-29T07:26:30.179Z,46.19
2023-03-29T07:29:37.353Z,45.56
2023-03-29T07:32:45.080Z,42.50
2023-03-29T07:36:09.205Z,41.91
2023-03-29T07:39:15.469Z,38.81
2023-03-29T07:42:25.088Z,38.02
2023-03-29T07:45:33.913Z,39.62
2023-03-29T07:48:40.861Z,35.51
2023-03-29T07:51:45.927Z,37.00
2023-03-29T07:54:49.822Z,38.75
2023-03-29T07:58:05.487Z,36.97
2023-03-29T08:01:21.831Z,37.74
2023-03-29T08:04:52.953Z,36.65
2023-03-29T08:08:00.343Z,35.11
2023-03-29T08:11:27.944Z,35.68
2023-03-29T08:14:48.084Z,38.28
2023-03-29T08:18:04.100Z,41.70
2023-03-29T08:21:15.236Z,42.47
2023-03-29T08:24:28.766Z,35.62
2023-03-29T08:27:48.732Z,36.09
2023-03-29T08:31:03.485Z,37.55
2023-03-29T08:34:06.591Z,38.09
2023-03-29T08:37:28.221Z,37.66
2023-03-29T08:40:33.144Z,38.32
2023-03-29T08:44:07.404Z,38.13
2023-03-29T08:48:00.177Z,36.52
2023-03-29T08:51:22.752Z,37.34
2023-03-29T08:54:45.781Z,35.77
2023-03-29T08:58:07.562Z,36.03
2023-03-29T09:01:15.981Z,35.66
2023-03-29T09:04:33.155Z,35.19
2023-03-29T09:07:52.919Z,38.76
2023-03-29T09:11:02.142Z,37.12
2023-03-29T09:14:38.474Z,37.24
2023-03-29T09:17:52.814Z,37.00
2023-03-29T09:20:58.985Z,38.08
2023-03-29T09:24:25.256Z,38.85
2023-03-29T09:28:06.085Z,39.66
2023-03-29T09:31:36.382Z,37.88
2023-03-29T09:34:45.695Z,37.56
2023-03-29T09:37:55.309Z,39.54
2023-03-29T09:41:10.996Z,39.49
2023-03-29T09:44:29.832Z,39.70
2023-03-29T09:48:00.346Z,40.71
2023-03-29T09:51:08.928Z,37.56
2023-03-29T09:54:14.113Z,39.05
2023-03-29T09:57:35.435Z,39.15
2023-03-29T10:00:40.717Z,40.17
2023-03-29T10:03:53.282Z,39.24
2023-03-29T10:07:00.058Z,41.39
2023-03-29T10:10:02.758Z,40.80
2023-03-29T10:13:16.689Z,41.66
2023-03-29T10:16:25.832Z,40.54
2023-03-29T10:19:37.012Z,40.04
2023-03-29T10:22:41.153Z,40.30
2023-03-29T10:25:44.534Z,40.97
2023-03-29T10:28:46.867Z,38.23
2023-03-29T10:31:50.269Z,37.31
2023-03-29T10:34:53.797Z,37.43
2023-03-29T10:38:00.589Z,37.66
2023-03-29T10:41:10.355Z,39.77
2023-03-29T10:44:36.986Z,41.69
2023-03-29T10:47:44.860Z,42.37
2023-03-29T10:50:53.290Z,42.57
2023-03-29T10:53:58.214Z,42.88
2023-03-29T10:57:05.503Z,41.41
2023-03-29T11:00:21.178Z,42.34
2023-03-29T11:03:40.335Z,42.05
2023-03-29T11:07:14.757Z,41.69
2023-03-29T11:10:26.291Z,42.43
2023-03-29T11:14:00.125Z,42.61
2023-03-29T11:17:12.347Z,42.25
2023-03-29T11:20:39.394Z,42.18
2023-03-29T11:24:00.100Z,42.25
2023-03-29T11:27:23.206Z,41.37
2023-03-29T11:30:39.079Z,40.63
2023-03-29T11:33:54.083Z,40.48
2023-03-29T11:37:01.168Z,39.52
2023-03-29T11:40:11.335Z,39.09
2023-03-29T11:43:33.362Z,38.53
2023-03-29T11:47:00.521Z,37.79
2023-03-29T11:50:24.705Z,38.65
2023-03-29T11:53:36.381Z,38.71
2023-03-29T11:56:47.140Z,35.64
2023-03-29T12:00:02.794Z,33.32
2023-03-29T12:03:28.581Z,33.03
2023-03-29T12:06:42.040Z,34.08
2023-03-29T12:09:58.931Z,32.60
2023-03-29T12:13:05.924Z,33.88
2023-03-29T12:16:23.285Z,33.81
2023-03-29T12:19:33.678Z,36.97
2023-03-29T12:22:37.491Z,38.02
2023-03-29T12:26:08.550Z,38.66
2023-03-29T12:29:22.695Z,40.35
2023-03-29T12:32:52.693Z,38.78
2023-03-29T12:36:55.782Z,41.10
2023-03-29T12:40:19.200Z,42.02
2023-03-29T12:43:43.518Z,43.04
2023-03-29T12:47:18.881Z,42.94
2023-03-29T12:50:28.657Z,43.60
2023-03-29T12:53:38.819Z,42.48
2023-03-29T12:57:02.991Z,42.91
2023-03-29T13:00:43.904Z,43.09
2023-03-29T13:03:46.640Z,41.96
2023-03-29T13:06:49.465Z,41.54
2023-03-29T13:09:55.142Z,41.65
2023-03-29T13:12:58.082Z,40.64
2023-03-29T13:16:21.799Z,42.41
2023-03-29T13:19:29.768Z,41.70
2023-03-29T13:23:03.464Z,41.46
2023-03-29T13:26:21.517Z,39.79
2023-03-29T13:29:37.677Z,39.60
2023-03-29T13:32:44.082Z,39.01
2023-03-29T13:35:49.182Z,38.56
2023-03-29T13:38:54.293Z,39.83
2023-03-29T13:42:39.076Z,38.65
2023-03-29T13:45:41.250Z,38.39
2023-03-29T13:48:43.477Z,38.69
2023-03-29T13:52:27.158Z,39.98
2023-03-29T13:55:38.438Z,41.48
2023-03-29T13:58:49.093Z,40.97
2023-03-29T14:02:00.492Z,40.47
2023-03-29T14:05:05.762Z,41.92
2023-03-29T14:08:27.859Z,42.25
2023-03-29T14:11:31.206Z,42.74
2023-03-29T14:14:33.600Z,43.22
2023-03-29T14:17:36.993Z,42.78
2023-03-29T14:20:44.125Z,43.49
2023-03-29T14:23:53.611Z,44.58
2023-03-29T14:26:56.013Z,44.81
2023-03-29T14:29:58.243Z,45.10
2023-03-29T14:33:05.102Z,46.24
2023-03-29T14:36:16.032Z,45.11
2023-03-29T14:39:21.576Z,45.50
2023-03-29T14:42:28.418Z,44.32
2023-03-29T14:45:30.778Z,42.88
2023-03-29T14:48:33.385Z,43.40
2023-03-29T14:51:36.177Z,42.96
2023-03-29T14:54:41.724Z,42.52
2023-03-29T14:57:44.131Z,42.88
2023-03-29T15:00:49.240Z,43.13
2023-03-29T15:04:04.816Z,42.33
2023-03-29T15:07:08.401Z,42.92
2023-03-29T15:10:25.122Z,43.54
2023-03-29T15:13:28.425Z,43.13
2023-03-29T15:16:31.602Z,44.32
2023-03-29T15:19:34.385Z,45.46
2023-03-29T15:22:37.510Z,45.16
2023-03-29T15:25:50.838Z,45.69
2023-03-29T15:29:03.074Z,46.36
2023-03-29T15:32:05.555Z,46.37
2023-03-29T15:35:22.432Z,48.55
2023-03-29T15:38:30.322Z,47.92
2023-03-29T15:41:43.922Z,47.22
2023-03-29T15:44:46.128Z,46.67
2023-03-29T15:47:48.846Z,47.55
2023-03-29T15:50:51.464Z,46.96
2023-03-29T15:53:53.822Z,47.14
2023-03-29T15:57:01.786Z,47.48
2023-03-29T16:00:08.028Z,47.17
2023-03-29T16:03:16.121Z,47.43
2023-03-29T16:06:18.510Z,46.77
2023-03-29T16:09:22.385Z,47.35
2023-03-29T16:12:25.276Z,47.92
2023-03-29T16:15:28.504Z,47.82
2023-03-29T16:18:30.893Z,47.91
2023-03-29T16:21:33.441Z,47.68
2023-03-29T16:24:36.696Z,48.63
2023-03-29T16:27:38.982Z,48.42
2023-03-29T16:30:41.492Z,49.15
2023-03-29T16:33:43.763Z,46.80
2023-03-29T16:36:49.717Z,47.72
2023-03-29T16:39:51.903Z,48.18
2023-03-29T16:42:54.171Z,48.47
2023-03-29T16:45:57.093Z,48.34
2023-03-29T16:48:59.549Z,48.38
2023-03-29T16:52:01.979Z,49.96
2023-03-29T16:55:05.936Z,51.89
2023-03-29T16:58:08.943Z,50.55
2023-03-29T17:01:16.913Z,50.15
2023-03-29T17:04:19.260Z,50.01
2023-03-29T17:07:21.691Z,51.29
2023-03-29T17:10:24.040Z,50.32
2023-03-29T17:13:26.692Z,51.26
2023-03-29T17:16:29.308Z,52.07
2023-03-29T17:19:31.764Z,52.37
2023-03-29T17:22:34.730Z,51.93
2023-03-29T17:25:37.169Z,51.39
2023-03-29T17:28:39.405Z,51.44
2023-03-29T17:31:49.361Z,51.81
2023-03-29T17:34:53.127Z,52.39
2023-03-29T17:37:55.979Z,52.14
2023-03-29T17:40:58.183Z,50.88
2023-03-29T17:44:01.244Z,52.62
2023-03-29T17:47:04.007Z,54.31
2023-03-29T17:50:07.667Z,52.81
2023-03-29T17:53:10.290Z,54.31
2023-03-29T17:56:13.350Z,53.10
2023-03-29T17:59:15.629Z,52.62
2023-03-29T18:02:22.942Z,54.03
2023-03-29T18:05:25.959Z,57.88
2023-03-29T18:08:28.256Z,53.84
2023-03-29T18:11:30.841Z,53.77
2023-03-29T18:14:33.365Z,53.75
2023-03-29T18:17:35.881Z,55.77
2023-03-29T18:20:38.233Z,52.85
2023-03-29T18:23:42.225Z,53.51
2023-03-29T18:26:50.963Z,53.07
2023-03-29T18:30:00.051Z,55.29
2023-03-29T18:33:02.517Z,54.39
2023-03-29T18:36:10.841Z,54.93
2023-03-29T18:39:15.098Z,56.60
2023-03-29T18:42:17.423Z,54.49
2023-03-29T18:45:20.037Z,54.41
2023-03-29T18:48:22.239Z,55.36
2023-03-29T18:51:25.955Z,53.91
2023-03-29T18:54:28.281Z,54.30
2023-03-29T18:57:30.944Z,54.73
2023-03-29T19:00:33.166Z,55.41
2023-03-29T19:03:35.835Z,55.44
2023-03-29T19:06:38.276Z,55.41
2023-03-29T19:09:47.581Z,55.77
2023-03-29T19:12:49.780Z,55.35
2023-03-29T19:15:52.180Z,55.46
2023-03-29T19:18:54.518Z,55.72
2023-03-29T19:21:59.812Z,54.87
2023-03-29T19:25:04.610Z,55.16
2023-03-29T19:28:07.021Z,55.28
2023-03-29T19:31:10.192Z,55.45
2023-03-29T19:34:12.552Z,56.70
2023-03-29T19:37:15.635Z,57.18
2023-03-29T19:40:20.168Z,58.44
2023-03-29T19:43:25.156Z,58.48
2023-03-29T19:46:29.046Z,58.59
2023-03-29T19:49:32.452Z,58.38
2023-03-29T19:52:35.310Z,58.61
2023-03-29T19:55:39.562Z,59.18
2023-03-29T19:58:42.269Z,59.55
2023-03-29T20:01:50.992Z,59.38
2023-03-29T20:04:53.698Z,60.30
2023-03-29T20:07:56.225Z,59.80
2023-03-29T20:11:10.310Z,60.73
2023-03-29T20:14:13.384Z,60.46
2023-03-29T20:17:15.677Z,60.15
2023-03-29T20:20:18.722Z,59.84
2023-03-29T20:23:21.009Z,60.65
2023-03-29T20:26:24.320Z,61.19
2023-03-29T20:29:27.408Z,60.83
2023-03-29T20:32:30.100Z,61.94
2023-03-29T20:35:32.420Z,62.06
2023-03-29T20:38:35.466Z,63.10
2023-03-29T20:41:38.429Z,62.80
2023-03-29T20:44:40.810Z,62.61
2023-03-29T20:47:50.297Z,62.05
2023-03-29T20:50:52.637Z,62.07
2023-03-29T20:54:02.341Z,62.25
2023-03-29T20:57:06.814Z,61.55
2023-03-29T21:00:13.279Z,60.34
2023-03-29T21:03:15.702Z,62.74
2023-03-29T21:06:19.351Z,63.75
2023-03-29T21:09:23.676Z,63.68
2023-03-29T21:12:26.017Z,64.39
2023-03-29T21:15:30.670Z,64.25
2023-03-29T21:18:35.028Z,64.43
2023-03-29T21:21:37.301Z,64.30
2023-03-29T21:24:40.197Z,64.80
2023-03-29T21:27:43.164Z,65.28
2023-03-29T21:30:45.444Z,67.20
2023-03-29T21:33:47.640Z,65.55
2023-03-29T21:36:50.659Z,66.75
2023-03-29T21:39:52.847Z,68.11
2023-03-29T21:42:55.144Z,70.62
2023-03-29T21:45:57.739Z,69.66
2023-03-29T21:49:00.268Z,67.50
2023-03-29T21:52:02.478Z,69.03
2023-03-29T21:55:08.226Z,68.04
2023-03-29T21:58:10.664Z,67.37
2023-03-29T22:01:13.045Z,66.50
2023-03-29T22:04:25.494Z,68.08
2023-03-29T22:07:45.690Z,72.13
2023-03-29T22:10:55.361Z,71.99
2023-03-29T22:13:57.783Z,70.29
2023-03-29T22:17:00.069Z,70.72
2023-03-29T22:20:04.565Z,68.37
2023-03-29T22:23:06.746Z,68.54
2023-03-29T22:26:11.347Z,68.04
2023-03-29T22:29:13.790Z,67.13
2023-03-29T22:32:16.234Z,67.46
2023-03-29T22:35:19.553Z,65.14
2023-03-29T22:38:21.946Z,65.41
2023-03-29T22:41:26.194Z,65.45
2023-03-29T22:44:28.730Z,65.41
2023-03-29T22:47:31.113Z,66.28
2023-03-29T22:50:33.455Z,66.37
2023-03-29T22:53:35.868Z,67.26
2023-03-29T22:56:38.135Z,67.05
2023-03-29T22:59:40.614Z,66.47
2023-03-29T23:02:43.342Z,66.24
2023-03-29T23:05:56.964Z,67.38
2023-03-29T23:08:59.215Z,67.03
2023-03-29T23:12:01.491Z,67.77
2023-03-29T23:15:06.401Z,68.02
2023-03-29T23:18:13.099Z,68.55
2023-03-29T23:21:15.425Z,68.69
2023-03-29T23:24:19.141Z,68.77
2023-03-29T23:27:21.659Z,69.46
2023-03-29T23:30:23.960Z,69.59
2023-03-29T23:33:27.107Z,69.85
2023-03-29T23:36:31.517Z,69.83
2023-03-29T23:39:35.001Z,70.05
2023-03-29T23:42:39.299Z,70.18
2023-03-29T23:45:41.556Z,70.75
2023-03-29T23:48:50.120Z,70.96
2023-03-29T23:51:52.448Z,71.05
2023-03-29T23:54:54.617Z,71.16
2023-03-29T23:57:56.946Z,71.39
